sensor_id;sensor_type;location;lat;lon;timestamp;P1;durP1;ratioP1;P2;durP2;ratioP2
78004;SDS011;67209;51.698;-0.292;2023-08-31T00:01:40;6.03;;;1.92;;
78004;SDS011;67209;51.698;-0.292;2023-08-31T00:04:06;2.90;;;2.00;;
78004;SDS011;67209;51.698;-0.292;2023-08-31T00:06:39;3.83;;;1.50;;
78004;SDS011;67209;51.698;-0.292;2023-08-31T00:09:05;6.90;;;1.92;;
78004;SDS011;67209;51.698;-0.292;2023-08-31T00:11:34;4.72;;;1.88;;
78004;SDS011;67209;51.698;-0.292;2023-08-31T00:14:00;3.22;;;1.65;;
78004;SDS011;67209;51.698;-0.292;2023-08-31T00:16:26;4.00;;;1.30;;
78004;SDS011;67209;51.698;-0.292;2023-08-31T00:18:52;5.32;;;1.77;;
78004;SDS011;67209;51.698;-0.292;2023-08-31T00:21:19;2.47;;;1.98;;
78004;SDS011;67209;51.698;-0.292;2023-08-31T00:23:45;6.00;;;1.80;;
78004;SDS011;67209;51.698;-0.292;2023-08-31T00:26:11;2.80;;;2.10;;
78004;SDS011;67209;51.698;-0.292;2023-08-31T00:28:37;3.22;;;1.50;;
78004;SDS011;67209;51.698;-0.292;2023-08-31T00:31:05;4.70;;;1.75;;
78004;SDS011;67209;51.698;-0.292;2023-08-31T00:33:31;2.95;;;1.45;;
78004;SDS011;67209;51.698;-0.292;2023-08-31T00:35:59;3.55;;;1.52;;
78004;SDS011;67209;51.698;-0.292;2023-08-31T00:38:26;3.97;;;1.70;;
78004;SDS011;67209;51.698;-0.292;2023-08-31T00:40:52;3.92;;;1.60;;
78004;SDS011;67209;51.698;-0.292;2023-08-31T00:43:19;4.18;;;1.60;;
78004;SDS011;67209;51.698;-0.292;2023-08-31T00:45:45;4.78;;;2.03;;
78004;SDS011;67209;51.698;-0.292;2023-08-31T00:48:13;3.95;;;1.95;;
78004;SDS011;67209;51.698;-0.292;2023-08-31T00:50:40;5.63;;;1.63;;
78004;SDS011;67209;51.698;-0.292;2023-08-31T00:53:06;4.03;;;1.75;;
78004;SDS011;67209;51.698;-0.292;2023-08-31T00:55:32;3.38;;;1.95;;
78004;SDS011;67209;51.698;-0.292;2023-08-31T00:57:59;4.65;;;1.80;;
78004;SDS011;67209;51.698;-0.292;2023-08-31T01:00:26;2.80;;;1.45;;
78004;SDS011;67209;51.698;-0.292;2023-08-31T01:02:59;3.50;;;1.70;;
78004;SDS011;67209;51.698;-0.292;2023-08-31T01:05:40;5.15;;;2.45;;
78004;SDS011;67209;51.698;-0.292;2023-08-31T01:10:57;4.93;;;1.85;;
78004;SDS011;67209;51.698;-0.292;2023-08-31T01:13:25;3.55;;;1.98;;
78004;SDS011;67209;51.698;-0.292;2023-08-31T01:15:52;5.30;;;1.63;;
78004;SDS011;67209;51.698;-0.292;2023-08-31T01:18:19;5.43;;;2.40;;
78004;SDS011;67209;51.698;-0.292;2023-08-31T01:20:50;5.25;;;1.98;;
78004;SDS011;67209;51.698;-0.292;2023-08-31T01:23:19;5.32;;;2.03;;
78004;SDS011;67209;51.698;-0.292;2023-08-31T01:25:45;3.67;;;1.60;;
78004;SDS011;67209;51.698;-0.292;2023-08-31T01:28:13;3.40;;;2.08;;
78004;SDS011;67209;51.698;-0.292;2023-08-31T01:30:39;3.53;;;1.42;;
78004;SDS011;67209;51.698;-0.292;2023-08-31T01:33:06;4.70;;;1.73;;
78004;SDS011;67209;51.698;-0.292;2023-08-31T01:35:42;3.78;;;1.60;;
78004;SDS011;67209;51.698;-0.292;2023-08-31T01:38:09;3.53;;;1.65;;
78004;SDS011;67209;51.698;-0.292;2023-08-31T01:40:38;3.55;;;1.83;;
78004;SDS011;67209;51.698;-0.292;2023-08-31T01:43:06;2.45;;;1.40;;
78004;SDS011;67209;51.698;-0.292;2023-08-31T01:45:32;4.72;;;1.70;;
78004;SDS011;67209;51.698;-0.292;2023-08-31T01:47:59;2.75;;;1.65;;
78004;SDS011;67209;51.698;-0.292;2023-08-31T01:50:25;3.17;;;1.35;;
78004;SDS011;67209;51.698;-0.292;2023-08-31T01:52:51;2.85;;;1.30;;
78004;SDS011;67209;51.698;-0.292;2023-08-31T01:55:24;3.65;;;1.85;;
78004;SDS011;67209;51.698;-0.292;2023-08-31T01:57:50;5.15;;;1.35;;
78004;SDS011;67209;51.698;-0.292;2023-08-31T02:00:16;5.68;;;1.95;;
78004;SDS011;67209;51.698;-0.292;2023-08-31T02:02:43;2.38;;;1.58;;
78004;SDS011;67209;51.698;-0.292;2023-08-31T02:05:09;3.03;;;1.60;;
78004;SDS011;67209;51.698;-0.292;2023-08-31T02:07:35;4.43;;;1.90;;
78004;SDS011;67209;51.698;-0.292;2023-08-31T02:10:02;4.95;;;1.85;;
78004;SDS011;67209;51.698;-0.292;2023-08-31T02:12:31;3.78;;;1.58;;
78004;SDS011;67209;51.698;-0.292;2023-08-31T02:14:57;4.30;;;1.63;;
78004;SDS011;67209;51.698;-0.292;2023-08-31T02:17:23;4.50;;;1.63;;
78004;SDS011;67209;51.698;-0.292;2023-08-31T02:19:50;5.28;;;1.80;;
78004;SDS011;67209;51.698;-0.292;2023-08-31T02:22:16;3.10;;;1.58;;
78004;SDS011;67209;51.698;-0.292;2023-08-31T02:24:42;3.88;;;2.03;;
78004;SDS011;67209;51.698;-0.292;2023-08-31T02:27:08;5.70;;;1.70;;
78004;SDS011;67209;51.698;-0.292;2023-08-31T02:29:34;4.72;;;2.00;;
78004;SDS011;67209;51.698;-0.292;2023-08-31T02:32:00;5.30;;;1.67;;
78004;SDS011;67209;51.698;-0.292;2023-08-31T02:34:26;4.82;;;2.42;;
78004;SDS011;67209;51.698;-0.292;2023-08-31T02:36:52;4.88;;;1.90;;
78004;SDS011;67209;51.698;-0.292;2023-08-31T02:39:18;4.55;;;1.70;;
78004;SDS011;67209;51.698;-0.292;2023-08-31T02:41:44;6.65;;;2.17;;
78004;SDS011;67209;51.698;-0.292;2023-08-31T02:44:10;4.18;;;2.10;;
78004;SDS011;67209;51.698;-0.292;2023-08-31T02:46:36;3.85;;;1.95;;
78004;SDS011;67209;51.698;-0.292;2023-08-31T02:49:02;3.10;;;1.70;;
78004;SDS011;67209;51.698;-0.292;2023-08-31T02:51:28;4.18;;;1.80;;
78004;SDS011;67209;51.698;-0.292;2023-08-31T02:53:54;5.32;;;2.10;;
78004;SDS011;67209;51.698;-0.292;2023-08-31T02:56:20;3.92;;;2.00;;
78004;SDS011;67209;51.698;-0.292;2023-08-31T02:58:46;6.57;;;2.10;;
78004;SDS011;67209;51.698;-0.292;2023-08-31T03:01:13;4.95;;;1.88;;
78004;SDS011;67209;51.698;-0.292;2023-08-31T03:03:39;3.10;;;1.90;;
78004;SDS011;67209;51.698;-0.292;2023-08-31T03:06:06;4.07;;;2.10;;
78004;SDS011;67209;51.698;-0.292;2023-08-31T03:08:36;3.58;;;1.75;;
78004;SDS011;67209;51.698;-0.292;2023-08-31T03:11:02;4.70;;;1.42;;
78004;SDS011;67209;51.698;-0.292;2023-08-31T03:13:29;5.10;;;2.08;;
78004;SDS011;67209;51.698;-0.292;2023-08-31T03:15:55;4.00;;;2.08;;
78004;SDS011;67209;51.698;-0.292;2023-08-31T03:18:24;4.78;;;2.10;;
78004;SDS011;67209;51.698;-0.292;2023-08-31T03:20:50;4.18;;;1.80;;
78004;SDS011;67209;51.698;-0.292;2023-08-31T03:23:16;5.57;;;1.85;;
78004;SDS011;67209;51.698;-0.292;2023-08-31T03:25:42;4.10;;;1.67;;
78004;SDS011;67209;51.698;-0.292;2023-08-31T03:28:08;5.90;;;1.80;;
78004;SDS011;67209;51.698;-0.292;2023-08-31T03:30:35;4.88;;;2.08;;
78004;SDS011;67209;51.698;-0.292;2023-08-31T03:33:01;5.07;;;1.95;;
78004;SDS011;67209;51.698;-0.292;2023-08-31T03:35:27;3.80;;;1.98;;
78004;SDS011;67209;51.698;-0.292;2023-08-31T03:37:54;3.05;;;1.85;;
78004;SDS011;67209;51.698;-0.292;2023-08-31T03:40:20;3.42;;;1.73;;
78004;SDS011;67209;51.698;-0.292;2023-08-31T03:42:46;2.80;;;1.75;;
78004;SDS011;67209;51.698;-0.292;2023-08-31T03:45:12;5.28;;;1.83;;
78004;SDS011;67209;51.698;-0.292;2023-08-31T03:47:38;7.90;;;1.90;;
78004;SDS011;67209;51.698;-0.292;2023-08-31T03:50:04;4.60;;;1.80;;
78004;SDS011;67209;51.698;-0.292;2023-08-31T03:52:30;4.63;;;2.15;;
78004;SDS011;67209;51.698;-0.292;2023-08-31T03:54:56;5.70;;;2.28;;
78004;SDS011;67209;51.698;-0.292;2023-08-31T03:57:22;4.03;;;1.85;;
78004;SDS011;67209;51.698;-0.292;2023-08-31T03:59:48;4.38;;;2.38;;
78004;SDS011;67209;51.698;-0.292;2023-08-31T04:02:15;5.35;;;2.10;;
78004;SDS011;67209;51.698;-0.292;2023-08-31T04:04:40;6.15;;;2.08;;
78004;SDS011;67209;51.698;-0.292;2023-08-31T04:07:06;4.90;;;2.15;;
78004;SDS011;67209;51.698;-0.292;2023-08-31T04:09:33;5.18;;;1.90;;
78004;SDS011;67209;51.698;-0.292;2023-08-31T04:11:59;6.60;;;2.53;;
78004;SDS011;67209;51.698;-0.292;2023-08-31T04:14:28;7.75;;;2.53;;
78004;SDS011;67209;51.698;-0.292;2023-08-31T04:16:54;3.35;;;2.17;;
78004;SDS011;67209;51.698;-0.292;2023-08-31T04:19:20;4.25;;;1.98;;
78004;SDS011;67209;51.698;-0.292;2023-08-31T04:21:46;4.28;;;2.03;;
78004;SDS011;67209;51.698;-0.292;2023-08-31T04:24:12;4.55;;;1.95;;
78004;SDS011;67209;51.698;-0.292;2023-08-31T04:26:38;4.95;;;1.83;;
78004;SDS011;67209;51.698;-0.292;2023-08-31T04:29:05;10.15;;;2.17;;
78004;SDS011;67209;51.698;-0.292;2023-08-31T04:31:34;6.30;;;2.25;;
78004;SDS011;67209;51.698;-0.292;2023-08-31T04:34:00;7.00;;;2.35;;
78004;SDS011;67209;51.698;-0.292;2023-08-31T04:36:26;5.47;;;2.00;;
78004;SDS011;67209;51.698;-0.292;2023-08-31T04:38:52;4.43;;;1.73;;
78004;SDS011;67209;51.698;-0.292;2023-08-31T04:41:18;4.60;;;2.10;;
78004;SDS011;67209;51.698;-0.292;2023-08-31T04:43:44;2.80;;;1.80;;
78004;SDS011;67209;51.698;-0.292;2023-08-31T04:46:13;8.48;;;2.55;;
78004;SDS011;67209;51.698;-0.292;2023-08-31T04:48:39;5.00;;;2.05;;
78004;SDS011;67209;51.698;-0.292;2023-08-31T04:51:05;3.92;;;2.17;;
78004;SDS011;67209;51.698;-0.292;2023-08-31T04:53:31;4.07;;;1.90;;
78004;SDS011;67209;51.698;-0.292;2023-08-31T04:55:57;4.78;;;2.05;;
78004;SDS011;67209;51.698;-0.292;2023-08-31T04:58:23;2.75;;;1.65;;
78004;SDS011;67209;51.698;-0.292;2023-08-31T05:00:51;3.35;;;2.30;;
78004;SDS011;67209;51.698;-0.292;2023-08-31T05:03:17;4.40;;;1.90;;
78004;SDS011;67209;51.698;-0.292;2023-08-31T05:05:43;6.40;;;1.92;;
78004;SDS011;67209;51.698;-0.292;2023-08-31T05:08:09;3.28;;;1.75;;
78004;SDS011;67209;51.698;-0.292;2023-08-31T05:10:35;4.22;;;2.10;;
78004;SDS011;67209;51.698;-0.292;2023-08-31T05:13:01;5.20;;;2.45;;
78004;SDS011;67209;51.698;-0.292;2023-08-31T05:15:29;5.93;;;2.30;;
78004;SDS011;67209;51.698;-0.292;2023-08-31T05:17:55;3.67;;;1.90;;
78004;SDS011;67209;51.698;-0.292;2023-08-31T05:20:21;4.72;;;2.20;;
78004;SDS011;67209;51.698;-0.292;2023-08-31T05:22:48;3.13;;;1.98;;
78004;SDS011;67209;51.698;-0.292;2023-08-31T05:25:14;8.00;;;2.10;;
78004;SDS011;67209;51.698;-0.292;2023-08-31T05:27:40;4.03;;;2.10;;
78004;SDS011;67209;51.698;-0.292;2023-08-31T05:30:06;5.03;;;2.38;;
78004;SDS011;67209;51.698;-0.292;2023-08-31T05:32:32;5.03;;;1.83;;
78004;SDS011;67209;51.698;-0.292;2023-08-31T05:34:58;3.13;;;2.10;;
78004;SDS011;67209;51.698;-0.292;2023-08-31T05:37:26;6.03;;;1.95;;
78004;SDS011;67209;51.698;-0.292;2023-08-31T05:39:52;7.40;;;2.42;;
78004;SDS011;67209;51.698;-0.292;2023-08-31T05:42:18;3.65;;;1.80;;
78004;SDS011;67209;51.698;-0.292;2023-08-31T05:44:44;4.88;;;2.22;;
78004;SDS011;67209;51.698;-0.292;2023-08-31T05:47:10;3.25;;;2.08;;
78004;SDS011;67209;51.698;-0.292;2023-08-31T05:49:36;4.50;;;2.33;;
78004;SDS011;67209;51.698;-0.292;2023-08-31T05:52:02;3.45;;;2.25;;
78004;SDS011;67209;51.698;-0.292;2023-08-31T05:54:28;3.58;;;2.35;;
78004;SDS011;67209;51.698;-0.292;2023-08-31T05:56:54;4.65;;;2.30;;
78004;SDS011;67209;51.698;-0.292;2023-08-31T05:59:20;4.88;;;2.50;;
78004;SDS011;67209;51.698;-0.292;2023-08-31T06:01:46;4.35;;;2.13;;
78004;SDS011;67209;51.698;-0.292;2023-08-31T06:04:12;6.00;;;2.47;;
78004;SDS011;67209;51.698;-0.292;2023-08-31T06:06:38;4.07;;;2.00;;
78004;SDS011;67209;51.698;-0.292;2023-08-31T06:09:04;6.53;;;2.42;;
78004;SDS011;67209;51.698;-0.292;2023-08-31T06:11:32;8.63;;;2.67;;
78004;SDS011;67209;51.698;-0.292;2023-08-31T06:13:58;3.63;;;2.28;;
78004;SDS011;67209;51.698;-0.292;2023-08-31T06:16:24;6.28;;;2.20;;
78004;SDS011;67209;51.698;-0.292;2023-08-31T06:18:50;6.05;;;2.03;;
78004;SDS011;67209;51.698;-0.292;2023-08-31T06:21:16;4.28;;;2.10;;
78004;SDS011;67209;51.698;-0.292;2023-08-31T06:23:42;5.40;;;1.98;;
78004;SDS011;67209;51.698;-0.292;2023-08-31T06:26:08;4.68;;;2.40;;
78004;SDS011;67209;51.698;-0.292;2023-08-31T06:28:34;6.80;;;2.97;;
78004;SDS011;67209;51.698;-0.292;2023-08-31T06:31:01;4.30;;;1.88;;
78004;SDS011;67209;51.698;-0.292;2023-08-31T06:33:27;4.40;;;2.67;;
78004;SDS011;67209;51.698;-0.292;2023-08-31T06:35:53;3.80;;;2.45;;
78004;SDS011;67209;51.698;-0.292;2023-08-31T06:38:19;3.70;;;1.73;;
78004;SDS011;67209;51.698;-0.292;2023-08-31T06:40:46;7.00;;;2.03;;
78004;SDS011;67209;51.698;-0.292;2023-08-31T06:43:12;3.92;;;1.92;;
78004;SDS011;67209;51.698;-0.292;2023-08-31T06:45:38;6.57;;;2.25;;
78004;SDS011;67209;51.698;-0.292;2023-08-31T06:48:05;3.35;;;2.05;;
78004;SDS011;67209;51.698;-0.292;2023-08-31T06:50:33;3.95;;;1.77;;
78004;SDS011;67209;51.698;-0.292;2023-08-31T06:53:00;5.47;;;2.17;;
78004;SDS011;67209;51.698;-0.292;2023-08-31T06:55:27;3.97;;;2.05;;
78004;SDS011;67209;51.698;-0.292;2023-08-31T06:57:53;4.93;;;1.75;;
78004;SDS011;67209;51.698;-0.292;2023-08-31T07:00:19;6.30;;;1.95;;
78004;SDS011;67209;51.698;-0.292;2023-08-31T07:02:45;2.47;;;1.80;;
78004;SDS011;67209;51.698;-0.292;2023-08-31T07:05:11;5.22;;;2.00;;
78004;SDS011;67209;51.698;-0.292;2023-08-31T07:07:37;4.03;;;1.95;;
78004;SDS011;67209;51.698;-0.292;2023-08-31T07:10:03;2.92;;;1.33;;
78004;SDS011;67209;51.698;-0.292;2023-08-31T07:12:30;5.10;;;1.90;;
78004;SDS011;67209;51.698;-0.292;2023-08-31T07:14:56;6.13;;;1.85;;
78004;SDS011;67209;51.698;-0.292;2023-08-31T07:17:22;4.32;;;2.00;;
78004;SDS011;67209;51.698;-0.292;2023-08-31T07:19:48;5.25;;;1.73;;
78004;SDS011;67209;51.698;-0.292;2023-08-31T07:22:14;6.78;;;2.40;;
78004;SDS011;67209;51.698;-0.292;2023-08-31T07:24:40;2.88;;;1.63;;
78004;SDS011;67209;51.698;-0.292;2023-08-31T07:27:06;5.28;;;2.03;;
78004;SDS011;67209;51.698;-0.292;2023-08-31T07:29:32;4.75;;;1.80;;
78004;SDS011;67209;51.698;-0.292;2023-08-31T07:31:58;8.25;;;1.92;;
78004;SDS011;67209;51.698;-0.292;2023-08-31T07:34:24;6.20;;;1.90;;
78004;SDS011;67209;51.698;-0.292;2023-08-31T07:36:51;10.73;;;1.80;;
78004;SDS011;67209;51.698;-0.292;2023-08-31T07:39:17;4.60;;;1.75;;
78004;SDS011;67209;51.698;-0.292;2023-08-31T07:41:43;5.90;;;2.25;;
78004;SDS011;67209;51.698;-0.292;2023-08-31T07:44:09;5.20;;;1.75;;
78004;SDS011;67209;51.698;-0.292;2023-08-31T07:46:35;4.97;;;1.70;;
78004;SDS011;67209;51.698;-0.292;2023-08-31T07:49:01;6.57;;;2.35;;
78004;SDS011;67209;51.698;-0.292;2023-08-31T07:51:29;4.75;;;2.05;;
78004;SDS011;67209;51.698;-0.292;2023-08-31T07:53:55;4.00;;;1.83;;
78004;SDS011;67209;51.698;-0.292;2023-08-31T07:56:21;4.07;;;1.90;;
78004;SDS011;67209;51.698;-0.292;2023-08-31T07:58:48;3.60;;;1.77;;
78004;SDS011;67209;51.698;-0.292;2023-08-31T08:01:14;3.80;;;1.70;;
78004;SDS011;67209;51.698;-0.292;2023-08-31T08:03:40;5.85;;;2.10;;
78004;SDS011;67209;51.698;-0.292;2023-08-31T08:06:06;3.63;;;2.08;;
78004;SDS011;67209;51.698;-0.292;2023-08-31T08:08:33;3.83;;;2.30;;
78004;SDS011;67209;51.698;-0.292;2023-08-31T08:10:59;6.97;;;3.03;;
78004;SDS011;67209;51.698;-0.292;2023-08-31T08:13:25;5.35;;;2.42;;
78004;SDS011;67209;51.698;-0.292;2023-08-31T08:15:51;6.97;;;2.92;;
78004;SDS011;67209;51.698;-0.292;2023-08-31T08:18:17;6.97;;;2.70;;
78004;SDS011;67209;51.698;-0.292;2023-08-31T08:20:46;4.13;;;2.15;;
78004;SDS011;67209;51.698;-0.292;2023-08-31T08:23:12;5.30;;;2.50;;
78004;SDS011;67209;51.698;-0.292;2023-08-31T08:25:38;6.47;;;2.13;;
78004;SDS011;67209;51.698;-0.292;2023-08-31T08:28:04;5.75;;;2.60;;
78004;SDS011;67209;51.698;-0.292;2023-08-31T08:30:30;4.35;;;2.28;;
78004;SDS011;67209;51.698;-0.292;2023-08-31T08:32:56;5.53;;;2.30;;
78004;SDS011;67209;51.698;-0.292;2023-08-31T08:35:23;3.65;;;2.50;;
78004;SDS011;67209;51.698;-0.292;2023-08-31T08:37:52;5.47;;;2.08;;
78004;SDS011;67209;51.698;-0.292;2023-08-31T08:40:18;7.65;;;2.58;;
78004;SDS011;67209;51.698;-0.292;2023-08-31T08:42:45;5.38;;;2.80;;
78004;SDS011;67209;51.698;-0.292;2023-08-31T08:45:13;6.93;;;3.17;;
78004;SDS011;67209;51.698;-0.292;2023-08-31T08:47:44;8.63;;;3.10;;
78004;SDS011;67209;51.698;-0.292;2023-08-31T08:50:12;8.45;;;3.53;;
78004;SDS011;67209;51.698;-0.292;2023-08-31T08:52:39;7.72;;;2.38;;
78004;SDS011;67209;51.698;-0.292;2023-08-31T08:55:05;7.45;;;2.97;;
78004;SDS011;67209;51.698;-0.292;2023-08-31T08:57:31;8.02;;;3.40;;
78004;SDS011;67209;51.698;-0.292;2023-08-31T08:59:57;6.25;;;3.28;;
78004;SDS011;67209;51.698;-0.292;2023-08-31T09:02:24;8.23;;;3.47;;
78004;SDS011;67209;51.698;-0.292;2023-08-31T09:04:49;6.03;;;3.00;;
78004;SDS011;67209;51.698;-0.292;2023-08-31T09:07:19;5.38;;;2.50;;
78004;SDS011;67209;51.698;-0.292;2023-08-31T09:09:49;8.35;;;2.50;;
78004;SDS011;67209;51.698;-0.292;2023-08-31T09:12:15;5.68;;;2.78;;
78004;SDS011;67209;51.698;-0.292;2023-08-31T09:14:41;5.20;;;2.50;;
78004;SDS011;67209;51.698;-0.292;2023-08-31T09:17:08;6.45;;;2.40;;
78004;SDS011;67209;51.698;-0.292;2023-08-31T09:19:34;6.68;;;2.65;;
78004;SDS011;67209;51.698;-0.292;2023-08-31T09:22:00;5.63;;;2.53;;
78004;SDS011;67209;51.698;-0.292;2023-08-31T09:24:26;6.80;;;2.45;;
78004;SDS011;67209;51.698;-0.292;2023-08-31T09:26:53;6.63;;;2.58;;
78004;SDS011;67209;51.698;-0.292;2023-08-31T09:29:19;5.38;;;2.78;;
78004;SDS011;67209;51.698;-0.292;2023-08-31T09:31:45;7.93;;;2.60;;
78004;SDS011;67209;51.698;-0.292;2023-08-31T09:34:12;3.80;;;2.20;;
78004;SDS011;67209;51.698;-0.292;2023-08-31T09:36:38;5.88;;;2.47;;
78004;SDS011;67209;51.698;-0.292;2023-08-31T09:39:07;8.82;;;2.22;;
78004;SDS011;67209;51.698;-0.292;2023-08-31T09:41:53;5.00;;;2.28;;
78004;SDS011;67209;51.698;-0.292;2023-08-31T09:44:20;6.60;;;2.50;;
78004;SDS011;67209;51.698;-0.292;2023-08-31T09:46:46;4.75;;;2.85;;
78004;SDS011;67209;51.698;-0.292;2023-08-31T09:49:16;4.75;;;3.03;;
78004;SDS011;67209;51.698;-0.292;2023-08-31T09:51:46;6.28;;;2.92;;
78004;SDS011;67209;51.698;-0.292;2023-08-31T09:54:16;4.93;;;3.03;;
78004;SDS011;67209;51.698;-0.292;2023-08-31T09:56:42;8.25;;;2.80;;
78004;SDS011;67209;51.698;-0.292;2023-08-31T09:59:12;7.93;;;2.80;;
78004;SDS011;67209;51.698;-0.292;2023-08-31T10:01:39;7.18;;;3.22;;
78004;SDS011;67209;51.698;-0.292;2023-08-31T10:04:05;4.28;;;2.47;;
78004;SDS011;67209;51.698;-0.292;2023-08-31T10:06:33;4.38;;;2.38;;
78004;SDS011;67209;51.698;-0.292;2023-08-31T10:09:00;5.03;;;2.60;;
78004;SDS011;67209;51.698;-0.292;2023-08-31T10:11:27;3.53;;;2.55;;
78004;SDS011;67209;51.698;-0.292;2023-08-31T10:13:53;8.43;;;2.80;;
78004;SDS011;67209;51.698;-0.292;2023-08-31T10:16:21;6.35;;;2.80;;
78004;SDS011;67209;51.698;-0.292;2023-08-31T10:18:47;5.43;;;2.22;;
78004;SDS011;67209;51.698;-0.292;2023-08-31T10:21:17;4.13;;;2.20;;
78004;SDS011;67209;51.698;-0.292;2023-08-31T10:23:44;3.55;;;2.35;;
78004;SDS011;67209;51.698;-0.292;2023-08-31T10:26:10;4.68;;;2.38;;
78004;SDS011;67209;51.698;-0.292;2023-08-31T10:28:41;4.85;;;2.20;;
78004;SDS011;67209;51.698;-0.292;2023-08-31T10:31:08;6.90;;;2.80;;
78004;SDS011;67209;51.698;-0.292;2023-08-31T10:33:39;7.88;;;1.90;;
78004;SDS011;67209;51.698;-0.292;2023-08-31T10:36:09;4.95;;;1.77;;
78004;SDS011;67209;51.698;-0.292;2023-08-31T10:38:36;2.38;;;1.67;;
78004;SDS011;67209;51.698;-0.292;2023-08-31T10:46:24;4.50;;;1.63;;
78004;SDS011;67209;51.698;-0.292;2023-08-31T10:49:01;3.22;;;1.30;;
78004;SDS011;67209;51.698;-0.292;2023-08-31T10:51:31;3.80;;;1.40;;
78004;SDS011;67209;51.698;-0.292;2023-08-31T10:56:30;1.95;;;1.48;;
78004;SDS011;67209;51.698;-0.292;2023-08-31T10:58:59;1.42;;;1.13;;
78004;SDS011;67209;51.698;-0.292;2023-08-31T11:04:10;2.20;;;1.50;;
78004;SDS011;67209;51.698;-0.292;2023-08-31T11:06:36;5.78;;;1.92;;
78004;SDS011;67209;51.698;-0.292;2023-08-31T11:09:02;3.33;;;1.58;;
78004;SDS011;67209;51.698;-0.292;2023-08-31T11:11:29;3.13;;;1.58;;
78004;SDS011;67209;51.698;-0.292;2023-08-31T11:14:02;2.92;;;1.20;;
78004;SDS011;67209;51.698;-0.292;2023-08-31T11:16:29;2.40;;;1.67;;
78004;SDS011;67209;51.698;-0.292;2023-08-31T11:18:55;3.08;;;1.67;;
78004;SDS011;67209;51.698;-0.292;2023-08-31T11:21:21;5.20;;;1.90;;
78004;SDS011;67209;51.698;-0.292;2023-08-31T11:23:48;3.63;;;1.67;;
78004;SDS011;67209;51.698;-0.292;2023-08-31T11:26:14;4.05;;;1.38;;
78004;SDS011;67209;51.698;-0.292;2023-08-31T11:28:43;3.60;;;1.52;;
78004;SDS011;67209;51.698;-0.292;2023-08-31T11:31:11;3.92;;;1.60;;
78004;SDS011;67209;51.698;-0.292;2023-08-31T11:33:37;3.03;;;2.00;;
78004;SDS011;67209;51.698;-0.292;2023-08-31T11:36:03;3.38;;;1.60;;
78004;SDS011;67209;51.698;-0.292;2023-08-31T11:38:29;4.05;;;1.77;;
78004;SDS011;67209;51.698;-0.292;2023-08-31T11:40:56;5.35;;;1.90;;
78004;SDS011;67209;51.698;-0.292;2023-08-31T11:43:22;3.63;;;2.08;;
78004;SDS011;67209;51.698;-0.292;2023-08-31T11:45:49;3.22;;;1.50;;
78004;SDS011;67209;51.698;-0.292;2023-08-31T11:48:15;4.53;;;1.70;;
78004;SDS011;67209;51.698;-0.292;2023-08-31T11:50:41;4.45;;;1.73;;
78004;SDS011;67209;51.698;-0.292;2023-08-31T11:53:07;3.80;;;1.85;;
78004;SDS011;67209;51.698;-0.292;2023-08-31T11:55:33;3.25;;;1.70;;
78004;SDS011;67209;51.698;-0.292;2023-08-31T11:57:59;4.70;;;1.70;;
78004;SDS011;67209;51.698;-0.292;2023-08-31T12:00:25;5.00;;;1.60;;
78004;SDS011;67209;51.698;-0.292;2023-08-31T12:03:01;4.13;;;1.80;;
78004;SDS011;67209;51.698;-0.292;2023-08-31T12:05:29;5.13;;;1.95;;
78004;SDS011;67209;51.698;-0.292;2023-08-31T12:08:09;3.53;;;1.48;;
78004;SDS011;67209;51.698;-0.292;2023-08-31T12:10:35;4.32;;;1.75;;
78004;SDS011;67209;51.698;-0.292;2023-08-31T12:13:09;1.65;;;1.40;;
78004;SDS011;67209;51.698;-0.292;2023-08-31T12:15:35;3.60;;;1.80;;
78004;SDS011;67209;51.698;-0.292;2023-08-31T12:20:34;3.45;;;1.55;;
78004;SDS011;67209;51.698;-0.292;2023-08-31T12:23:06;3.97;;;1.75;;
78004;SDS011;67209;51.698;-0.292;2023-08-31T12:25:34;3.38;;;1.40;;
78004;SDS011;67209;51.698;-0.292;2023-08-31T12:28:00;2.50;;;1.80;;
78004;SDS011;67209;51.698;-0.292;2023-08-31T12:30:27;2.90;;;1.45;;
78004;SDS011;67209;51.698;-0.292;2023-08-31T12:32:54;3.58;;;1.80;;
78004;SDS011;67209;51.698;-0.292;2023-08-31T12:35:20;4.22;;;1.50;;
78004;SDS011;67209;51.698;-0.292;2023-08-31T12:37:46;3.78;;;2.28;;
78004;SDS011;67209;51.698;-0.292;2023-08-31T12:40:13;3.45;;;1.80;;
78004;SDS011;67209;51.698;-0.292;2023-08-31T12:42:40;5.53;;;1.80;;
78004;SDS011;67209;51.698;-0.292;2023-08-31T12:45:06;4.90;;;1.70;;
78004;SDS011;67209;51.698;-0.292;2023-08-31T12:47:32;4.45;;;1.80;;
78004;SDS011;67209;51.698;-0.292;2023-08-31T12:49:58;5.55;;;2.28;;
78004;SDS011;67209;51.698;-0.292;2023-08-31T12:52:24;4.47;;;1.90;;
78004;SDS011;67209;51.698;-0.292;2023-08-31T12:54:50;4.93;;;2.00;;
78004;SDS011;67209;51.698;-0.292;2023-08-31T12:57:16;3.45;;;2.00;;
78004;SDS011;67209;51.698;-0.292;2023-08-31T12:59:42;4.18;;;2.00;;
78004;SDS011;67209;51.698;-0.292;2023-08-31T13:02:08;4.18;;;2.25;;
78004;SDS011;67209;51.698;-0.292;2023-08-31T13:04:36;2.88;;;1.77;;
78004;SDS011;67209;51.698;-0.292;2023-08-31T13:07:02;3.10;;;1.70;;
78004;SDS011;67209;51.698;-0.292;2023-08-31T13:09:30;4.70;;;1.70;;
78004;SDS011;67209;51.698;-0.292;2023-08-31T13:11:56;2.95;;;1.90;;
78004;SDS011;67209;51.698;-0.292;2023-08-31T13:14:22;3.97;;;2.00;;
78004;SDS011;67209;51.698;-0.292;2023-08-31T13:16:48;3.30;;;1.70;;
78004;SDS011;67209;51.698;-0.292;2023-08-31T13:19:14;2.28;;;1.70;;
78004;SDS011;67209;51.698;-0.292;2023-08-31T13:21:40;5.47;;;2.05;;
78004;SDS011;67209;51.698;-0.292;2023-08-31T13:24:06;3.90;;;1.65;;
78004;SDS011;67209;51.698;-0.292;2023-08-31T13:26:32;3.00;;;1.73;;
78004;SDS011;67209;51.698;-0.292;2023-08-31T13:28:58;4.80;;;1.95;;
78004;SDS011;67209;51.698;-0.292;2023-08-31T13:31:24;4.50;;;1.80;;
78004;SDS011;67209;51.698;-0.292;2023-08-31T13:33:50;6.18;;;2.08;;
78004;SDS011;67209;51.698;-0.292;2023-08-31T13:36:16;4.30;;;1.60;;
78004;SDS011;67209;51.698;-0.292;2023-08-31T13:38:42;3.92;;;1.98;;
78004;SDS011;67209;51.698;-0.292;2023-08-31T13:41:08;5.70;;;2.00;;
78004;SDS011;67209;51.698;-0.292;2023-08-31T13:43:34;4.22;;;1.60;;
78004;SDS011;67209;51.698;-0.292;2023-08-31T13:46:00;4.32;;;2.33;;
78004;SDS011;67209;51.698;-0.292;2023-08-31T13:48:26;3.83;;;1.75;;
78004;SDS011;67209;51.698;-0.292;2023-08-31T13:50:52;8.40;;;2.17;;
78004;SDS011;67209;51.698;-0.292;2023-08-31T13:53:18;4.60;;;1.83;;
78004;SDS011;67209;51.698;-0.292;2023-08-31T13:55:44;7.25;;;2.00;;
78004;SDS011;67209;51.698;-0.292;2023-08-31T13:58:10;4.65;;;2.42;;
78004;SDS011;67209;51.698;-0.292;2023-08-31T14:00:37;5.15;;;1.85;;
78004;SDS011;67209;51.698;-0.292;2023-08-31T14:03:03;3.60;;;1.70;;
78004;SDS011;67209;51.698;-0.292;2023-08-31T14:05:30;4.47;;;1.95;;
78004;SDS011;67209;51.698;-0.292;2023-08-31T14:07:57;3.05;;;1.88;;
78004;SDS011;67209;51.698;-0.292;2023-08-31T14:10:23;5.15;;;1.83;;
78004;SDS011;67209;51.698;-0.292;2023-08-31T14:12:49;3.83;;;2.00;;
78004;SDS011;67209;51.698;-0.292;2023-08-31T14:15:15;3.28;;;2.00;;
78004;SDS011;67209;51.698;-0.292;2023-08-31T14:17:41;4.22;;;2.08;;
78004;SDS011;67209;51.698;-0.292;2023-08-31T14:20:07;4.30;;;2.20;;
78004;SDS011;67209;51.698;-0.292;2023-08-31T14:22:35;6.18;;;2.22;;
78004;SDS011;67209;51.698;-0.292;2023-08-31T14:25:01;6.72;;;2.05;;
78004;SDS011;67209;51.698;-0.292;2023-08-31T14:27:28;3.63;;;2.10;;
78004;SDS011;67209;51.698;-0.292;2023-08-31T14:29:55;5.10;;;2.00;;
78004;SDS011;67209;51.698;-0.292;2023-08-31T14:32:22;6.30;;;2.00;;
78004;SDS011;67209;51.698;-0.292;2023-08-31T14:34:48;3.45;;;1.60;;
78004;SDS011;67209;51.698;-0.292;2023-08-31T14:37:14;4.78;;;1.30;;
78004;SDS011;67209;51.698;-0.292;2023-08-31T14:39:40;4.75;;;2.00;;
78004;SDS011;67209;51.698;-0.292;2023-08-31T14:42:06;4.43;;;1.70;;
78004;SDS011;67209;51.698;-0.292;2023-08-31T14:44:32;4.82;;;1.50;;
78004;SDS011;67209;51.698;-0.292;2023-08-31T14:46:58;3.88;;;2.00;;